createdAt,value
2023-05-04T00:02:21.478Z,7.90
2023-05-04T00:04:48.133Z,6.55
2023-05-04T00:07:14.554Z,9.68
2023-05-04T00:09:40.913Z,4.32
2023-05-04T00:12:07.946Z,8.32
2023-05-04T00:14:34.732Z,8.82
2023-05-04T00:17:02.859Z,7.75
2023-05-04T00:19:29.243Z,6.35
2023-05-04T00:21:55.574Z,6.50
2023-05-04T00:24:21.896Z,5.32
2023-05-04T00:26:48.175Z,6.78
2023-05-04T00:29:14.549Z,6.57
2023-05-04T00:31:41.048Z,13.60
2023-05-04T00:34:07.656Z,7.50
2023-05-04T00:36:34.452Z,7.68
2023-05-04T00:39:01.058Z,5.50
2023-05-04T00:41:27.473Z,7.57
2023-05-04T00:43:53.907Z,6.10
2023-05-04T00:46:20.323Z,4.70
2023-05-04T00:48:49.110Z,7.10
2023-05-04T00:51:16.814Z,7.35
2023-05-04T00:53:43.811Z,5.95
2023-05-04T00:56:10.993Z,12.55
2023-05-04T00:58:37.362Z,6.63
2023-05-04T01:01:03.982Z,6.32
2023-05-04T01:03:31.643Z,5.43
2023-05-04T01:06:13.394Z,7.63
2023-05-04T01:08:45.395Z,5.25
2023-05-04T01:11:17.506Z,5.22
2023-05-04T01:13:45.494Z,8.25
2023-05-04T01:16:14.649Z,8.20
2023-05-04T01:18:41.968Z,9.20
2023-05-04T01:21:09.690Z,7.05
2023-05-04T01:23:36.347Z,10.93
2023-05-04T01:26:12.225Z,4.60
2023-05-04T01:28:44.225Z,9.05
2023-05-04T01:31:14.112Z,4.93
2023-05-04T01:33:42.779Z,3.80
2023-05-04T01:36:09.652Z,6.03
2023-05-04T01:38:36.314Z,5.20
2023-05-04T01:41:02.643Z,9.95
2023-05-04T01:43:28.992Z,6.63
2023-05-04T01:45:55.335Z,5.13
2023-05-04T01:48:21.695Z,5.65
2023-05-04T01:50:48.004Z,7.43
2023-05-04T01:53:14.399Z,7.80
2023-05-04T01:55:40.785Z,5.45
2023-05-04T01:58:08.381Z,7.80
2023-05-04T02:00:34.703Z,3.78
2023-05-04T02:03:01.194Z,5.03
2023-05-04T02:05:27.931Z,7.93
2023-05-04T02:07:54.286Z,8.75
2023-05-04T02:10:20.567Z,4.75
2023-05-04T02:12:47.110Z,6.00
2023-05-04T02:15:13.544Z,5.50
2023-05-04T02:17:40.085Z,6.68
2023-05-04T02:20:07.331Z,7.05
2023-05-04T02:22:34.665Z,6.18
2023-05-04T02:25:00.968Z,4.70
2023-05-04T02:27:27.306Z,8.70
2023-05-04T02:29:54.095Z,5.47
2023-05-04T02:32:20.470Z,7.35
2023-05-04T02:34:46.827Z,7.18
2023-05-04T02:37:13.170Z,7.32
2023-05-04T02:39:39.621Z,7.43
2023-05-04T02:42:06.026Z,7.15
2023-05-04T02:44:32.622Z,5.68
2023-05-04T02:46:58.985Z,5.82
2023-05-04T02:49:25.327Z,10.52
2023-05-04T02:51:51.713Z,4.57
2023-05-04T02:54:18.071Z,5.32
2023-05-04T02:56:44.426Z,8.52
2023-05-04T02:59:10.741Z,10.05
2023-05-04T03:01:37.147Z,4.60
2023-05-04T03:04:03.746Z,5.05
2023-05-04T03:06:30.501Z,5.65
2023-05-04T03:08:56.793Z,4.53
2023-05-04T03:11:26.665Z,6.65
2023-05-04T03:13:53.105Z,6.88
2023-05-04T03:16:20.876Z,4.30
2023-05-04T03:21:31.864Z,6.32
2023-05-04T03:23:59.032Z,4.97
2023-05-04T03:26:25.391Z,6.80
2023-05-04T03:28:52.039Z,4.57
2023-05-04T03:31:18.496Z,5.43
2023-05-04T03:33:48.866Z,6.47
2023-05-04T03:36:15.606Z,11.15
2023-05-04T03:38:42.750Z,4.70
2023-05-04T03:41:10.510Z,11.10
2023-05-04T03:43:36.794Z,6.05
2023-05-04T03:46:03.192Z,6.97
2023-05-04T03:48:29.564Z,6.30
2023-05-04T03:50:55.958Z,6.53
2023-05-04T03:53:22.336Z,6.00
2023-05-04T03:55:48.668Z,6.15
2023-05-04T03:58:15.112Z,11.48
2023-05-04T04:00:41.515Z,6.38
2023-05-04T04:03:12.738Z,7.18
2023-05-04T04:05:39.393Z,4.55
2023-05-04T04:08:05.829Z,7.82
2023-05-04T04:10:32.437Z,9.95
2023-05-04T04:12:58.897Z,6.10
2023-05-04T04:15:25.354Z,13.93
2023-05-04T04:17:51.714Z,8.10
2023-05-04T04:20:18.185Z,5.88
2023-05-04T04:22:44.550Z,11.48
2023-05-04T04:25:10.936Z,11.57
2023-05-04T04:27:37.708Z,9.60
2023-05-04T04:30:05.220Z,9.07
2023-05-04T04:32:32.035Z,9.30
2023-05-04T04:34:58.385Z,10.93
2023-05-04T04:37:24.736Z,13.02
2023-05-04T04:39:51.015Z,5.97
2023-05-04T04:42:17.473Z,8.27
2023-05-04T04:44:45.985Z,9.35
2023-05-04T04:47:12.473Z,7.28
2023-05-04T04:49:38.744Z,9.73
2023-05-04T04:52:05.824Z,11.45
2023-05-04T04:54:32.370Z,15.20
2023-05-04T04:56:59.396Z,33.25
2023-05-04T04:59:25.713Z,13.35
2023-05-04T05:01:52.003Z,18.63
2023-05-04T05:04:19.845Z,39.13
2023-05-04T05:06:46.172Z,37.30
2023-05-04T05:09:12.533Z,31.77
2023-05-04T05:11:38.839Z,51.15
2023-05-04T05:14:06.341Z,56.85
2023-05-04T05:16:32.664Z,86.38
2023-05-04T05:18:58.963Z,65.45
2023-05-04T05:21:25.260Z,56.08
2023-05-04T05:23:51.591Z,47.72
2023-05-04T05:26:17.891Z,45.85
2023-05-04T05:28:44.174Z,42.47
2023-05-04T05:31:11.380Z,37.70
2023-05-04T05:33:38.628Z,32.75
2023-05-04T05:36:05.961Z,40.20
2023-05-04T05:38:32.394Z,51.03
2023-05-04T05:40:58.685Z,40.33
2023-05-04T05:43:25.226Z,39.17
2023-05-04T05:45:51.585Z,44.17
2023-05-04T05:48:17.965Z,27.95
2023-05-04T05:50:44.265Z,28.10
2023-05-04T05:53:10.675Z,26.25
2023-05-04T05:55:36.983Z,24.88
2023-05-04T05:58:03.827Z,34.00
2023-05-04T06:00:30.284Z,34.53
2023-05-04T06:02:56.717Z,19.35
2023-05-04T06:05:23.725Z,22.83
2023-05-04T06:07:50.120Z,30.67
2023-05-04T06:10:16.542Z,35.13
2023-05-04T06:12:42.853Z,46.10
2023-05-04T06:15:09.575Z,24.38
2023-05-04T06:17:36.109Z,30.10
2023-05-04T06:20:02.632Z,18.05
2023-05-04T06:22:29.079Z,27.20
2023-05-04T06:24:59.005Z,26.95
2023-05-04T06:27:31.472Z,25.95
2023-05-04T06:29:57.759Z,20.27
2023-05-04T06:32:24.097Z,13.73
2023-05-04T06:34:57.231Z,21.30
2023-05-04T06:37:23.758Z,13.90
2023-05-04T06:39:50.053Z,15.27
2023-05-04T06:42:16.399Z,13.82
2023-05-04T06:44:42.792Z,15.75
2023-05-04T06:47:09.258Z,9.00
2023-05-04T06:49:35.595Z,13.20
2023-05-04T06:52:01.924Z,18.27
2023-05-04T06:54:28.304Z,9.50
2023-05-04T06:56:54.630Z,11.00
2023-05-04T06:59:21.504Z,10.02
2023-05-04T07:01:47.904Z,12.98
2023-05-04T07:04:16.294Z,16.05
2023-05-04T07:06:43.405Z,11.23
2023-05-04T07:09:09.731Z,15.90
2023-05-04T07:11:36.296Z,10.20
2023-05-04T07:14:02.631Z,13.85
2023-05-04T07:16:29.022Z,11.85
2023-05-04T07:18:55.369Z,15.10
2023-05-04T07:21:27.476Z,11.57
2023-05-04T07:23:55.599Z,16.83
2023-05-04T07:26:22.856Z,14.50
2023-05-04T07:28:49.162Z,15.32
2023-05-04T07:31:15.854Z,10.30
2023-05-04T07:33:42.584Z,16.50
2023-05-04T07:36:09.079Z,15.60
2023-05-04T07:38:35.518Z,18.48
2023-05-04T07:41:01.947Z,14.43
2023-05-04T07:43:28.238Z,17.65
2023-05-04T07:45:54.640Z,10.88
2023-05-04T07:48:21.673Z,12.13
2023-05-04T07:50:48.809Z,12.15
2023-05-04T07:53:15.106Z,11.55
2023-05-04T07:55:41.413Z,16.00
2023-05-04T07:58:10.142Z,14.85
2023-05-04T08:00:36.583Z,13.00
2023-05-04T08:03:03.279Z,10.73
2023-05-04T08:05:29.719Z,9.10
2023-05-04T08:07:56.224Z,11.60
2023-05-04T08:10:22.537Z,14.60
2023-05-04T08:12:48.946Z,10.57
2023-05-04T08:15:16.073Z,14.00
2023-05-04T08:17:42.571Z,10.15
2023-05-04T08:20:10.026Z,11.18
2023-05-04T08:22:36.637Z,13.98
2023-05-04T08:25:03.332Z,12.82
2023-05-04T08:27:29.871Z,13.82
2023-05-04T08:29:59.154Z,14.25
2023-05-04T08:32:28.286Z,9.75
2023-05-04T08:34:54.667Z,13.32
2023-05-04T08:37:21.120Z,11.95
2023-05-04T08:39:47.422Z,13.75
2023-05-04T08:42:13.822Z,10.20
2023-05-04T08:44:41.164Z,9.65
2023-05-04T08:47:09.127Z,10.82
2023-05-04T08:49:35.636Z,11.65
2023-05-04T08:52:07.508Z,12.90
2023-05-04T08:54:35.336Z,9.77
2023-05-04T08:57:04.641Z,10.02
2023-05-04T08:59:32.108Z,10.98
2023-05-04T09:01:59.576Z,11.05
2023-05-04T09:04:28.653Z,8.23
2023-05-04T09:06:56.734Z,8.88
2023-05-04T09:09:27.597Z,8.57
2023-05-04T09:11:53.884Z,9.35
2023-05-04T09:14:22.291Z,10.35
2023-05-04T09:16:48.664Z,12.32
2023-05-04T09:19:19.426Z,12.25
2023-05-04T09:21:47.016Z,12.52
2023-05-04T09:24:13.355Z,13.52
2023-05-04T09:26:39.699Z,9.55
2023-05-04T09:29:16.078Z,12.70
2023-05-04T09:31:47.937Z,13.57
2023-05-04T09:34:14.992Z,11.23
2023-05-04T09:36:44.688Z,11.63
2023-05-04T09:39:15.806Z,6.70
2023-05-04T09:44:18.829Z,7.05
2023-05-04T09:46:58.861Z,6.05
2023-05-04T09:49:36.170Z,7.80
2023-05-04T09:52:05.007Z,6.13
2023-05-04T09:54:35.128Z,4.95
2023-05-04T09:57:06.717Z,8.23
2023-05-04T09:59:33.641Z,3.90
2023-05-04T10:02:04.813Z,4.45
2023-05-04T10:04:41.026Z,4.72
2023-05-04T10:07:07.785Z,8.52
2023-05-04T10:09:34.831Z,3.80
2023-05-04T10:12:05.186Z,3.42
2023-05-04T10:14:33.831Z,7.03
2023-05-04T10:17:18.044Z,4.50
2023-05-04T10:20:11.899Z,5.85
2023-05-04T10:23:07.810Z,7.80
2023-05-04T10:26:05.971Z,7.68
2023-05-04T10:28:38.060Z,4.28
2023-05-04T10:31:06.185Z,3.08
2023-05-04T10:33:40.162Z,5.70
2023-05-04T10:36:07.659Z,4.45
2023-05-04T10:38:38.942Z,7.00
2023-05-04T10:41:19.366Z,6.10
2023-05-04T10:43:50.847Z,6.03
2023-05-04T10:46:21.489Z,5.22
2023-05-04T10:48:48.520Z,11.15
2023-05-04T10:51:22.389Z,6.10
2023-05-04T10:53:49.214Z,7.22
2023-05-04T10:56:28.390Z,4.40
2023-05-04T10:58:54.984Z,4.68
2023-05-04T11:01:21.956Z,7.57
2023-05-04T11:03:49.450Z,4.32
2023-05-04T11:06:19.528Z,5.40
2023-05-04T11:08:49.157Z,5.00
2023-05-04T11:11:16.166Z,5.00
2023-05-04T11:13:46.452Z,4.90
2023-05-04T11:16:26.774Z,6.10
2023-05-04T11:18:54.289Z,5.28
2023-05-04T11:21:27.565Z,7.00
2023-05-04T11:23:58.542Z,7.75
2023-05-04T11:28:51.889Z,6.38
2023-05-04T11:31:20.037Z,9.43
2023-05-04T11:33:51.348Z,5.18
2023-05-04T11:36:18.552Z,8.45
2023-05-04T11:38:45.385Z,4.20
2023-05-04T11:41:12.468Z,5.03
2023-05-04T11:43:40.525Z,7.63
2023-05-04T11:46:07.861Z,9.45
2023-05-04T11:48:35.490Z,6.57
2023-05-04T11:51:03.110Z,9.48
2023-05-04T11:53:39.810Z,5.93
2023-05-04T11:56:08.841Z,4.90
2023-05-04T11:58:35.606Z,8.93
2023-05-04T12:01:02.015Z,10.13
2023-05-04T12:03:39.860Z,5.28
2023-05-04T12:06:18.344Z,5.82
2023-05-04T12:08:44.766Z,6.28
2023-05-04T12:11:25.129Z,6.18
2023-05-04T12:14:13.281Z,4.13
2023-05-04T12:16:42.996Z,7.43
2023-05-04T12:19:12.326Z,6.32
2023-05-04T12:21:51.555Z,5.03
2023-05-04T12:24:17.906Z,9.75
2023-05-04T12:26:44.248Z,5.95
2023-05-04T12:29:10.585Z,5.85
2023-05-04T12:31:36.897Z,8.60
2023-05-04T12:34:03.201Z,12.40
2023-05-04T12:36:29.584Z,7.50
2023-05-04T12:38:56.185Z,6.80
2023-05-04T12:41:23.212Z,8.20
2023-05-04T12:43:49.503Z,9.43
2023-05-04T12:46:21.073Z,4.53
2023-05-04T12:48:47.408Z,5.60
2023-05-04T12:51:13.784Z,6.40
2023-05-04T12:53:41.036Z,5.63
2023-05-04T12:56:07.448Z,5.75
2023-05-04T12:58:33.905Z,6.63
2023-05-04T13:01:00.237Z,8.10
2023-05-04T13:03:26.819Z,9.98
2023-05-04T13:05:53.426Z,7.00
2023-05-04T13:08:19.898Z,7.43
2023-05-04T13:10:47.049Z,8.50
2023-05-04T13:13:16.058Z,7.57
2023-05-04T13:15:43.211Z,10.10
2023-05-04T13:18:09.766Z,9.63
2023-05-04T13:20:36.160Z,5.15
2023-05-04T13:23:02.522Z,7.15
2023-05-04T13:25:28.812Z,5.65
2023-05-04T13:27:55.162Z,5.85
2023-05-04T13:30:21.894Z,6.35
2023-05-04T13:32:48.985Z,10.25
2023-05-04T13:35:16.157Z,4.13
2023-05-04T13:37:42.475Z,4.47
2023-05-04T13:40:09.437Z,4.50
2023-05-04T13:42:37.215Z,7.10
2023-05-04T13:45:04.555Z,4.35
2023-05-04T13:47:31.460Z,5.70
2023-05-04T13:49:57.892Z,7.43
2023-05-04T13:52:24.296Z,5.55
2023-05-04T13:54:50.584Z,4.25
2023-05-04T13:57:16.969Z,5.55
2023-05-04T13:59:54.665Z,5.15
2023-05-04T14:02:25.042Z,5.60
2023-05-04T14:04:51.614Z,4.70
2023-05-04T14:07:17.945Z,8.48
2023-05-04T14:09:44.667Z,6.70
2023-05-04T14:12:11.055Z,4.75
2023-05-04T14:14:37.339Z,5.88
2023-05-04T14:17:03.995Z,6.10
2023-05-04T14:19:30.320Z,6.85
2023-05-04T14:21:56.615Z,5.65
2023-05-04T14:24:24.646Z,9.82
2023-05-04T14:26:51.055Z,5.95
2023-05-04T14:29:17.356Z,5.75
2023-05-04T14:31:43.746Z,5.30
2023-05-04T14:34:10.748Z,7.05
2023-05-04T14:36:37.179Z,7.50
2023-05-04T14:39:03.663Z,3.50
2023-05-04T14:41:33.689Z,4.28
2023-05-04T14:44:00.414Z,6.17
2023-05-04T14:46:28.853Z,5.00
2023-05-04T14:48:55.267Z,8.00
2023-05-04T14:51:29.956Z,7.18
2023-05-04T14:53:57.008Z,6.93
2023-05-04T14:56:23.329Z,6.30
2023-05-04T14:58:49.687Z,5.90
2023-05-04T15:01:16.212Z,5.57
2023-05-04T15:03:42.825Z,6.28
2023-05-04T15:06:10.124Z,6.47
2023-05-04T15:08:36.687Z,6.65
2023-05-04T15:11:03.008Z,6.45
2023-05-04T15:13:30.472Z,7.80
2023-05-04T15:15:56.788Z,9.73
2023-05-04T15:18:25.947Z,6.28
2023-05-04T15:20:52.375Z,5.25
2023-05-04T15:23:18.693Z,7.85
2023-05-04T15:25:45.010Z,5.45
2023-05-04T15:28:11.798Z,5.82
2023-05-04T15:30:39.215Z,4.55
2023-05-04T15:33:06.254Z,6.47
2023-05-04T15:35:34.132Z,7.78
2023-05-04T15:38:01.227Z,6.35
2023-05-04T15:40:27.981Z,4.90
2023-05-04T15:42:54.566Z,6.25
2023-05-04T15:45:21.354Z,6.95
2023-05-04T15:47:47.734Z,4.93
2023-05-04T15:50:14.160Z,6.05
2023-05-04T15:52:40.576Z,4.88
2023-05-04T15:55:23.781Z,5.55
2023-05-04T15:57:52.386Z,6.55
2023-05-04T16:00:19.166Z,6.68
2023-05-04T16:02:45.600Z,5.03
2023-05-04T16:05:12.022Z,8.23
2023-05-04T16:07:38.497Z,7.72
2023-05-04T16:10:05.718Z,8.80
2023-05-04T16:12:32.200Z,4.97
2023-05-04T16:14:58.537Z,4.97
2023-05-04T16:17:24.949Z,5.00
2023-05-04T16:19:51.683Z,5.30
2023-05-04T16:22:18.025Z,6.97
2023-05-04T16:24:44.313Z,6.53
2023-05-04T16:27:10.606Z,6.15
2023-05-04T16:29:36.925Z,7.03
2023-05-04T16:32:03.430Z,6.68
2023-05-04T16:34:29.741Z,7.30
2023-05-04T16:36:56.072Z,8.75
2023-05-04T16:39:26.790Z,6.55
2023-05-04T16:41:53.137Z,8.10
2023-05-04T16:44:19.428Z,8.45
2023-05-04T16:46:46.077Z,10.05
2023-05-04T16:49:14.596Z,12.55
2023-05-04T16:51:41.458Z,6.07
2023-05-04T16:54:07.899Z,7.43
2023-05-04T16:56:34.370Z,6.00
2023-05-04T16:59:00.922Z,8.25
2023-05-04T17:01:27.309Z,8.50
2023-05-04T17:03:53.860Z,8.20
2023-05-04T17:06:20.496Z,6.90
2023-05-04T17:08:46.856Z,11.85
2023-05-04T17:11:13.184Z,9.00
2023-05-04T17:13:39.491Z,9.88
2023-05-04T17:16:06.362Z,6.97
2023-05-04T17:18:32.766Z,9.77
2023-05-04T17:20:59.059Z,12.20
2023-05-04T17:23:25.432Z,16.60
2023-05-04T17:25:51.794Z,8.75
2023-05-04T17:28:18.132Z,7.60
2023-05-04T17:30:44.527Z,5.72
2023-05-04T17:33:11.053Z,5.88
2023-05-04T17:35:37.350Z,9.07
2023-05-04T17:38:03.821Z,9.60
2023-05-04T17:40:30.130Z,11.13
2023-05-04T17:42:56.903Z,6.07
2023-05-04T17:45:23.364Z,6.22
2023-05-04T17:47:52.918Z,6.70
2023-05-04T17:50:19.842Z,6.80
2023-05-04T17:52:54.615Z,4.85
2023-05-04T17:55:24.252Z,5.78
2023-05-04T17:57:52.200Z,4.32
2023-05-04T18:00:18.787Z,4.00
2023-05-04T18:02:45.181Z,5.40
2023-05-04T18:05:11.746Z,5.35
2023-05-04T18:07:38.478Z,4.95
2023-05-04T18:10:05.470Z,3.78
2023-05-04T18:12:31.985Z,5.47
2023-05-04T18:14:58.308Z,10.98
2023-05-04T18:17:26.341Z,4.82
2023-05-04T18:19:52.668Z,6.22
2023-05-04T18:22:19.332Z,7.55
2023-05-04T18:24:49.585Z,8.63
2023-05-04T18:27:16.305Z,10.43
2023-05-04T18:29:42.884Z,13.15
2023-05-04T18:32:10.580Z,8.50
2023-05-04T18:34:37.666Z,10.45
2023-05-04T18:37:04.100Z,19.13
2023-05-04T18:39:31.866Z,15.93
2023-05-04T18:42:00.725Z,10.93
2023-05-04T18:44:27.013Z,9.68
2023-05-04T18:46:53.331Z,9.82
2023-05-04T18:49:19.681Z,7.28
2023-05-04T18:51:46.174Z,9.75
2023-05-04T18:54:14.785Z,8.30
2023-05-04T18:56:41.105Z,7.50
2023-05-04T18:59:07.675Z,10.07
2023-05-04T19:01:34.056Z,15.85
2023-05-04T19:04:00.589Z,30.20
2023-05-04T19:06:27.058Z,38.63
2023-05-04T19:08:53.526Z,51.33
2023-05-04T19:11:19.861Z,27.60
2023-05-04T19:13:46.164Z,19.88
2023-05-04T19:16:12.882Z,13.57
2023-05-04T19:18:39.676Z,12.30
2023-05-04T19:21:06.253Z,8.70
2023-05-04T19:23:32.799Z,7.63
2023-05-04T19:25:59.118Z,11.23
2023-05-04T19:28:25.546Z,6.38
2023-05-04T19:30:53.759Z,5.85
2023-05-04T19:33:20.200Z,8.05
2023-05-04T19:35:46.607Z,6.90
2023-05-04T19:38:12.976Z,6.88
2023-05-04T19:40:40.929Z,8.30
2023-05-04T19:43:08.599Z,5.82
2023-05-04T19:45:34.918Z,11.73
2023-05-04T19:48:03.463Z,7.50
2023-05-04T19:50:30.205Z,8.07
2023-05-04T19:52:56.670Z,6.82
2023-05-04T19:55:23.129Z,9.45
2023-05-04T19:57:49.924Z,6.07
2023-05-04T20:00:19.201Z,7.07
2023-05-04T20:02:46.609Z,8.02
2023-05-04T20:05:13.565Z,6.95
2023-05-04T20:07:40.070Z,6.45
2023-05-04T20:10:08.112Z,10.88
2023-05-04T20:12:34.777Z,7.03
2023-05-04T20:15:01.284Z,5.20
2023-05-04T20:17:27.681Z,7.82
2023-05-04T20:19:53.981Z,15.07
2023-05-04T20:22:20.402Z,9.75
2023-05-04T20:24:46.874Z,5.13
2023-05-04T20:27:13.259Z,5.35
2023-05-04T20:29:39.606Z,9.63
2023-05-04T20:32:07.124Z,5.07
2023-05-04T20:34:33.685Z,5.95
2023-05-04T20:37:00.166Z,8.90
2023-05-04T20:39:26.487Z,10.65
2023-05-04T20:41:52.966Z,6.78
2023-05-04T20:44:19.319Z,10.35
2023-05-04T20:46:45.600Z,7.22
2023-05-04T20:49:12.227Z,8.45
2023-05-04T20:51:39.354Z,6.75
2023-05-04T20:54:05.735Z,6.30
2023-05-04T20:56:32.041Z,8.73
2023-05-04T20:58:58.452Z,5.85
2023-05-04T21:01:24.851Z,6.38
2023-05-04T21:03:51.345Z,6.35
2023-05-04T21:06:17.756Z,7.15
2023-05-04T21:08:44.139Z,8.00
2023-05-04T21:11:10.461Z,5.80
2023-05-04T21:13:36.755Z,7.85
2023-05-04T21:16:03.233Z,7.90
2023-05-04T21:18:29.592Z,6.78
2023-05-04T21:20:55.988Z,6.88
2023-05-04T21:23:23.570Z,7.82
2023-05-04T21:25:49.921Z,7.15
2023-05-04T21:28:16.245Z,10.52
2023-05-04T21:30:43.322Z,8.98
2023-05-04T21:33:09.664Z,6.28
2023-05-04T21:35:35.970Z,7.32
2023-05-04T21:38:02.322Z,8.43
2023-05-04T21:40:28.932Z,8.10
2023-05-04T21:42:55.351Z,9.60
2023-05-04T21:45:21.695Z,6.78
2023-05-04T21:47:48.491Z,9.52
2023-05-04T21:50:16.054Z,9.85
2023-05-04T21:52:42.353Z,9.65
2023-05-04T21:55:09.181Z,10.45
2023-05-04T21:57:35.659Z,9.65
2023-05-04T22:00:02.405Z,12.10
2023-05-04T22:02:31.820Z,11.48
2023-05-04T22:04:58.267Z,10.27
2023-05-04T22:07:24.554Z,8.05
2023-05-04T22:09:51.887Z,6.72
2023-05-04T22:12:18.185Z,7.80
2023-05-04T22:14:44.472Z,8.15
2023-05-04T22:17:10.812Z,7.03
2023-05-04T22:19:38.059Z,7.93
2023-05-04T22:22:04.443Z,8.07
2023-05-04T22:24:30.736Z,8.40
2023-05-04T22:26:57.056Z,8.30
2023-05-04T22:29:23.369Z,7.22
2023-05-04T22:31:49.675Z,7.90
2023-05-04T22:34:15.987Z,11.98
2023-05-04T22:36:42.335Z,6.30
2023-05-04T22:39:09.183Z,9.00
2023-05-04T22:41:35.683Z,7.47
2023-05-04T22:44:01.995Z,7.82
2023-05-04T22:46:28.308Z,9.00
2023-05-04T22:48:54.647Z,8.15
2023-05-04T22:51:20.961Z,8.32
2023-05-04T22:53:47.351Z,7.68
2023-05-04T22:56:13.654Z,10.88
2023-05-04T22:58:40.018Z,9.82
2023-05-04T23:01:12.953Z,7.13
2023-05-04T23:03:39.397Z,6.57
2023-05-04T23:06:06.331Z,8.00
2023-05-04T23:08:32.634Z,8.18
2023-05-04T23:10:58.961Z,6.88
2023-05-04T23:13:25.339Z,9.35
2023-05-04T23:15:52.076Z,10.02
2023-05-04T23:18:18.549Z,9.88
2023-05-04T23:20:44.923Z,9.20
2023-05-04T23:23:11.344Z,9.95
2023-05-04T23:25:37.626Z,7.13
2023-05-04T23:28:04.177Z,7.72
2023-05-04T23:30:30.470Z,10.55
2023-05-04T23:32:57.602Z,9.30
2023-05-04T23:35:23.906Z,12.25
2023-05-04T23:37:50.533Z,9.57
2023-05-04T23:40:16.853Z,10.23
2023-05-04T23:42:43.161Z,11.57
2023-05-04T23:45:09.913Z,10.90
2023-05-04T23:47:36.214Z,10.20
2023-05-04T23:50:02.881Z,9.93
2023-05-04T23:52:29.349Z,11.27
2023-05-04T23:54:55.734Z,7.15
2023-05-04T23:57:22.126Z,8.38
2023-05-04T23:59:48.393Z,7.82
